Time;durP1;ratioP1;P1;durP2;ratioP2;P2;SDS_P1;SDS_P2;PMS_P1;PMS_P2;Temp;Humidity;BMP_temperature;BMP_pressure;BME280_temperature;BME280_humidity;BME280_pressure;Samples;Min_cycle;Max_cycle;Signal;HPM_P1;HPM_P2
2022/07/19 00:01:42;;;;;;;7.80;3.10;;;23.70;88.70;;;;;;5071033;28;20658;-51
2022/07/19 00:04:07;;;;;;;5.40;3.20;;;23.60;88.70;;;;;;5070887;28;20060;-51
2022/07/19 00:06:33;;;;;;;5.93;3.38;;;23.60;88.70;;;;;;5070480;28;20036;-54
2022/07/19 00:08:59;;;;;;;6.93;3.30;;;23.60;88.20;;;;;;5070851;28;20033;-52
2022/07/19 00:11:25;;;;;;;6.68;3.05;;;23.40;88.40;;;;;;5070856;28;20032;-51
2022/07/19 00:13:51;;;;;;;6.35;3.00;;;23.30;88.50;;;;;;5070534;28;20392;-49
2022/07/19 00:16:19;;;;;;;5.05;3.40;;;23.30;88.80;;;;;;5070671;28;20120;-52
2022/07/19 00:18:45;;;;;;;6.43;3.15;;;23.30;89.00;;;;;;5070783;28;20442;-52
2022/07/19 00:21:11;;;;;;;6.10;3.30;;;23.20;88.90;;;;;;5069200;28;20626;-53
2022/07/19 00:23:36;;;;;;;5.47;3.13;;;23.10;89.10;;;;;;5070898;28;20032;-51
2022/07/19 00:26:03;;;;;;;5.10;3.17;;;23.10;89.40;;;;;;5069386;28;20384;-52
2022/07/19 00:28:29;;;;;;;6.40;3.33;;;23.00;89.50;;;;;;5070463;28;20033;-52
2022/07/19 00:30:54;;;;;;;7.78;3.88;;;23.00;89.70;;;;;;5069126;28;20059;-51
2022/07/19 00:33:20;;;;;;;6.05;3.25;;;22.90;89.90;;;;;;5073107;28;20115;-52
2022/07/19 00:35:46;;;;;;;6.45;3.35;;;22.90;90.00;;;;;;5074846;28;20407;-51
2022/07/19 00:38:13;;;;;;;5.75;3.55;;;22.90;90.00;;;;;;5074576;28;20036;-51
2022/07/19 00:40:40;;;;;;;7.68;3.90;;;22.80;90.00;;;;;;5074630;28;20049;-51
2022/07/19 00:43:07;;;;;;;6.72;3.80;;;22.60;90.10;;;;;;5074125;28;20050;-52
2022/07/19 00:45:33;;;;;;;8.85;4.00;;;22.70;90.20;;;;;;5074582;28;20032;-50
2022/07/19 00:47:59;;;;;;;7.22;3.97;;;22.80;90.30;;;;;;5072902;28;20040;-52
2022/07/19 00:50:25;;;;;;;9.65;3.97;;;22.80;90.40;;;;;;5074018;28;20119;-50
2022/07/19 00:53:00;;;;;;;7.70;3.90;;;22.70;90.40;;;;;;5074357;28;20040;-52
2022/07/19 00:55:31;;;;;;;5.88;3.92;;;22.60;90.50;;;;;;5074347;28;20396;-53
2022/07/19 00:57:58;;;;;;;7.40;4.30;;;22.60;90.50;;;;;;5074161;28;20036;-48
2022/07/19 01:00:25;;;;;;;8.77;4.22;;;22.60;90.50;;;;;;5072483;28;20052;-54
2022/07/19 01:02:52;;;;;;;7.82;4.18;;;22.50;90.60;;;;;;5074315;28;20043;-52
2022/07/19 01:05:18;;;;;;;6.88;4.07;;;22.50;90.60;;;;;;5074174;28;20040;-50
2022/07/19 01:07:44;;;;;;;9.63;4.75;;;22.50;90.60;;;;;;5073980;28;20032;-52
2022/07/19 01:10:12;;;;;;;7.53;4.88;;;22.40;90.70;;;;;;5073558;28;20037;-54
2022/07/19 01:12:38;;;;;;;7.70;4.20;;;22.40;90.80;;;;;;5073566;28;20033;-54
2022/07/19 01:15:15;;;;;;;7.32;4.50;;;22.30;90.90;;;;;;5074034;28;20031;-49
2022/07/19 01:17:40;;;;;;;9.73;5.03;;;22.30;91.10;;;;;;5074236;28;20047;-51
2022/07/19 01:20:07;;;;;;;6.90;4.10;;;22.30;91.20;;;;;;5073254;28;20066;-51
2022/07/19 01:22:33;;;;;;;8.20;4.60;;;22.20;91.40;;;;;;5073734;28;20041;-50
2022/07/19 01:24:58;;;;;;;7.55;5.13;;;22.20;91.10;;;;;;5072492;28;20032;-49
2022/07/19 01:27:24;;;;;;;10.77;4.85;;;22.20;91.10;;;;;;5073859;28;20064;-49
2022/07/19 01:29:50;;;;;;;7.57;4.15;;;22.20;91.10;;;;;;5073523;28;20049;-52
2022/07/19 01:32:15;;;;;;;6.88;4.68;;;22.00;91.30;;;;;;5073771;28;20044;-47
2022/07/19 01:34:41;;;;;;;6.93;5.10;;;21.90;91.30;;;;;;5072028;28;20047;-49
2022/07/19 01:37:07;;;;;;;7.72;5.03;;;21.90;91.40;;;;;;5073457;28;20043;-52
2022/07/19 01:39:32;;;;;;;10.02;5.32;;;21.90;91.60;;;;;;5072927;28;20123;-51
2022/07/19 01:41:58;;;;;;;12.05;5.63;;;21.90;91.60;;;;;;5071413;28;20036;-51
2022/07/19 01:44:24;;;;;;;10.63;5.45;;;21.90;91.80;;;;;;5071322;28;20032;-50
2022/07/19 01:46:49;;;;;;;8.63;5.25;;;21.80;91.70;;;;;;5073085;28;20041;-53
2022/07/19 01:49:15;;;;;;;8.45;5.60;;;21.80;91.80;;;;;;5071749;28;20037;-49
2022/07/19 01:51:41;;;;;;;10.30;5.28;;;21.80;91.80;;;;;;5073369;28;20033;-51
2022/07/19 01:54:06;;;;;;;9.35;5.40;;;21.60;91.90;;;;;;5073020;28;20035;-51
2022/07/19 01:56:32;;;;;;;8.65;5.55;;;21.50;92.10;;;;;;5073239;28;20423;-53
2022/07/19 01:58:57;;;;;;;8.15;5.32;;;21.50;92.20;;;;;;5071514;28;20537;-49
2022/07/19 02:01:23;;;;;;;8.45;5.22;;;21.60;92.60;;;;;;5073204;28;20082;-51
2022/07/19 02:03:49;;;;;;;9.00;5.32;;;21.50;92.30;;;;;;5073048;28;20722;-51
2022/07/19 02:06:14;;;;;;;8.48;5.82;;;21.50;92.30;;;;;;5071732;28;20115;-50
2022/07/19 02:08:41;;;;;;;9.60;5.90;;;21.40;92.30;;;;;;5072963;28;20472;-53
2022/07/19 02:13:51;;;;;;;8.90;5.40;;;21.50;92.40;;;;;;5071812;28;20140;-54
2022/07/19 02:16:17;;;;;;;11.25;6.32;;;21.40;92.50;;;;;;5071561;28;20186;-51
2022/07/19 02:18:43;;;;;;;9.77;6.10;;;21.40;92.20;;;;;;5072383;28;20483;-52
2022/07/19 02:21:08;;;;;;;9.52;5.72;;;21.40;92.20;;;;;;5072837;28;20043;-53
2022/07/19 02:23:34;;;;;;;8.73;5.63;;;21.30;92.20;;;;;;5072632;28;20407;-53
2022/07/19 02:26:00;;;;;;;8.93;6.05;;;21.30;92.40;;;;;;5072548;28;20037;-54
2022/07/19 02:28:26;;;;;;;8.85;5.70;;;21.30;92.30;;;;;;5072582;28;20086;-54
2022/07/19 02:30:51;;;;;;;8.55;5.55;;;21.30;92.40;;;;;;5072134;28;20048;-51
2022/07/19 02:33:17;;;;;;;9.43;6.28;;;21.30;92.50;;;;;;5072392;28;20104;-52
2022/07/19 02:35:43;;;;;;;10.45;5.90;;;21.20;92.60;;;;;;5072410;28;20170;-48
2022/07/19 02:38:08;;;;;;;10.88;6.15;;;21.20;93.00;;;;;;5072376;28;20071;-52
2022/07/19 02:40:34;;;;;;;8.32;5.47;;;21.10;92.90;;;;;;5072021;28;20117;-50
2022/07/19 02:43:00;;;;;;;9.02;5.32;;;21.10;92.80;;;;;;5071920;28;20043;-49
2022/07/19 02:45:25;;;;;;;9.35;5.93;;;21.10;92.90;;;;;;5072096;28;20499;-50
2022/07/19 02:47:51;;;;;;;9.52;5.53;;;21.00;93.50;;;;;;5070888;28;20055;-51
2022/07/19 02:50:17;;;;;;;10.05;6.05;;;20.90;93.20;;;;;;5071545;28;20043;-51
2022/07/19 02:52:42;;;;;;;9.73;5.43;;;20.80;93.20;;;;;;5070907;28;20051;-51
2022/07/19 02:55:09;;;;;;;10.10;6.20;;;20.90;93.40;;;;;;5071501;28;20044;-50
2022/07/19 02:57:34;;;;;;;9.85;6.60;;;20.90;93.40;;;;;;5071715;28;20040;-49
2022/07/19 03:00:00;;;;;;;10.73;6.68;;;20.70;93.50;;;;;;5071344;28;20059;-49
2022/07/19 03:02:26;;;;;;;9.70;6.30;;;20.80;93.90;;;;;;5071838;28;20438;-51
2022/07/19 03:04:52;;;;;;;11.23;6.28;;;20.80;93.60;;;;;;5071755;28;20091;-51
2022/07/19 03:07:17;;;;;;;10.02;6.10;;;20.70;93.50;;;;;;5070668;28;20039;-49
2022/07/19 03:09:43;;;;;;;8.73;5.82;;;20.60;93.60;;;;;;5071735;28;20424;-50
2022/07/19 03:12:09;;;;;;;9.20;6.18;;;20.60;93.90;;;;;;5071341;28;20037;-51
2022/07/19 03:14:35;;;;;;;8.75;6.22;;;20.60;93.70;;;;;;5070025;28;20044;-50
2022/07/19 03:17:00;;;;;;;9.75;5.85;;;20.60;93.70;;;;;;5071725;28;20047;-55
2022/07/19 03:19:26;;;;;;;11.18;6.45;;;20.60;93.90;;;;;;5071447;28;20048;-48
2022/07/19 03:21:53;;;;;;;9.82;6.38;;;20.70;94.00;;;;;;5071696;28;20029;-53
2022/07/19 03:24:19;;;;;;;9.73;5.85;;;20.60;94.10;;;;;;5071291;28;20113;-50
2022/07/19 03:26:44;;;;;;;10.45;6.70;;;20.60;94.10;;;;;;5071157;28;20029;-52
2022/07/19 03:29:10;;;;;;;9.15;6.43;;;20.50;94.10;;;;;;5071306;28;20037;-49
2022/07/19 03:31:36;;;;;;;10.50;6.63;;;20.50;94.00;;;;;;5070952;28;20033;-53
2022/07/19 03:34:03;;;;;;;11.32;6.65;;;20.50;94.10;;;;;;5071339;28;20112;-53
2022/07/19 03:36:28;;;;;;;10.82;6.88;;;20.50;94.50;;;;;;5071226;28;20086;-53
2022/07/19 03:38:56;;;;;;;11.27;6.88;;;20.50;94.40;;;;;;5071206;28;20032;-52
2022/07/19 03:41:22;;;;;;;11.93;6.72;;;20.40;94.60;;;;;;5070909;28;20049;-48
2022/07/19 03:43:47;;;;;;;12.02;7.20;;;20.40;94.60;;;;;;5070865;28;20043;-52
2022/07/19 03:46:13;;;;;;;10.25;6.10;;;20.40;94.40;;;;;;5070823;28;20111;-51
2022/07/19 03:48:39;;;;;;;11.50;7.15;;;20.30;94.10;;;;;;5070763;28;20173;-50
2022/07/19 03:51:05;;;;;;;10.32;6.60;;;20.40;94.50;;;;;;5070941;28;20119;-52
2022/07/19 03:53:31;;;;;;;9.10;6.55;;;20.40;94.30;;;;;;5070996;28;20046;-51
2022/07/19 03:55:56;;;;;;;11.13;6.70;;;20.40;94.60;;;;;;5070634;28;20044;-51
2022/07/19 03:58:22;;;;;;;10.52;7.20;;;20.30;94.60;;;;;;5070636;28;20118;-47
2022/07/19 04:00:48;;;;;;;10.07;7.03;;;20.30;94.40;;;;;;5071009;28;20127;-53
2022/07/19 04:03:13;;;;;;;12.25;7.25;;;20.30;94.50;;;;;;5070976;28;20036;-53
2022/07/19 04:05:39;;;;;;;10.27;6.80;;;20.30;94.60;;;;;;5069448;28;20179;-51
2022/07/19 04:08:05;;;;;;;10.48;6.68;;;20.30;94.40;;;;;;5070194;28;20388;-52
2022/07/19 04:10:30;;;;;;;10.55;6.65;;;20.30;94.70;;;;;;5069157;28;20047;-51
2022/07/19 04:12:56;;;;;;;10.38;7.20;;;20.20;94.70;;;;;;5070464;28;20561;-50
2022/07/19 04:15:22;;;;;;;10.30;6.72;;;20.20;94.50;;;;;;5070512;28;20044;-49
2022/07/19 04:17:47;;;;;;;9.32;6.88;;;20.20;94.90;;;;;;5070531;28;20115;-49
2022/07/19 04:20:13;;;;;;;10.95;6.75;;;20.10;94.60;;;;;;5070363;28;20037;-49
2022/07/19 04:22:39;;;;;;;10.40;7.40;;;20.10;94.80;;;;;;5070500;28;20028;-49
2022/07/19 04:25:05;;;;;;;9.75;6.65;;;20.10;94.90;;;;;;5070608;28;20036;-51
2022/07/19 04:27:31;;;;;;;9.35;6.57;;;20.10;95.00;;;;;;5069889;28;20072;-53
2022/07/19 04:29:57;;;;;;;11.70;7.63;;;20.00;95.00;;;;;;5052423;28;20455;-51
2022/07/19 04:32:23;;;;;;;10.65;7.20;;;20.10;95.20;;;;;;5070284;28;20075;-49
2022/07/19 04:34:49;;;;;;;12.65;7.25;;;20.10;95.00;;;;;;5070262;28;20076;-51
2022/07/19 04:37:15;;;;;;;11.38;7.65;;;20.00;95.30;;;;;;5070291;28;20089;-52
2022/07/19 04:39:41;;;;;;;11.68;7.35;;;20.00;95.40;;;;;;5070176;28;20123;-50
2022/07/19 04:42:07;;;;;;;11.88;7.15;;;20.10;95.30;;;;;;5070249;28;20029;-50
2022/07/19 04:44:33;;;;;;;12.55;7.25;;;20.00;95.30;;;;;;5070381;28;20454;-50
2022/07/19 04:46:59;;;;;;;12.32;7.65;;;20.00;95.30;;;;;;5069320;28;20472;-50
2022/07/19 04:49:25;;;;;;;13.20;7.60;;;20.10;95.10;;;;;;5070064;28;20047;-51
2022/07/19 04:51:50;;;;;;;9.55;7.15;;;20.10;95.30;;;;;;5070536;28;20041;-53
2022/07/19 04:54:16;;;;;;;10.43;7.00;;;20.10;95.40;;;;;;5069825;28;20040;-53
2022/07/19 04:56:42;;;;;;;11.50;7.50;;;20.10;95.10;;;;;;5069826;28;20116;-52
2022/07/19 04:59:08;;;;;;;9.85;7.25;;;20.10;95.40;;;;;;5068447;28;20083;-51
2022/07/19 05:01:34;;;;;;;11.52;7.50;;;20.20;95.20;;;;;;5070412;28;20045;-50
2022/07/19 05:04:00;;;;;;;10.27;7.18;;;20.20;95.20;;;;;;5070205;28;20040;-46
2022/07/19 05:06:25;;;;;;;9.43;6.72;;;20.30;95.10;;;;;;5069304;28;20361;-47
2022/07/19 05:08:52;;;;;;;10.02;7.05;;;20.30;95.40;;;;;;5070397;28;20297;-51
2022/07/19 05:11:19;;;;;;;10.35;7.85;;;20.30;95.30;;;;;;5069938;28;20112;-50
2022/07/19 05:13:45;;;;;;;13.50;7.38;;;20.40;95.20;;;;;;5070097;28;20111;-51
2022/07/19 05:16:11;;;;;;;12.18;7.55;;;20.40;95.10;;;;;;5070141;28;20060;-51
2022/07/19 05:18:36;;;;;;;11.93;7.18;;;20.50;95.10;;;;;;5070830;28;20872;-50
2022/07/19 05:21:02;;;;;;;12.55;7.28;;;20.50;95.10;;;;;;5073834;28;20436;-51
2022/07/19 05:23:28;;;;;;;11.13;7.63;;;20.50;95.10;;;;;;5073792;28;20403;-52
2022/07/19 05:25:54;;;;;;;12.65;6.93;;;20.60;95.50;;;;;;5073332;28;20028;-52
2022/07/19 05:28:19;;;;;;;13.10;7.38;;;20.60;95.30;;;;;;5073425;28;20086;-52
2022/07/19 05:30:45;;;;;;;13.95;7.40;;;20.60;95.40;;;;;;5073566;28;20036;-52
2022/07/19 05:33:11;;;;;;;10.65;7.68;;;20.70;95.40;;;;;;5072226;28;20055;-51
2022/07/19 05:35:38;;;;;;;11.05;6.85;;;20.70;95.60;;;;;;5073633;28;20399;-49
2022/07/19 05:38:04;;;;;;;10.65;7.15;;;20.70;95.50;;;;;;5073404;28;20083;-53
2022/07/19 05:40:29;;;;;;;13.25;7.00;;;20.80;95.20;;;;;;5073052;28;20083;-47
2022/07/19 05:42:55;;;;;;;12.52;7.03;;;20.90;95.50;;;;;;5073222;28;20036;-49
2022/07/19 05:45:20;;;;;;;9.55;7.07;;;20.90;95.20;;;;;;5072920;28;20032;-52
2022/07/19 05:47:46;;;;;;;10.45;7.28;;;20.90;95.20;;;;;;5073567;28;20039;-51
2022/07/19 05:50:12;;;;;;;12.65;6.88;;;21.00;95.50;;;;;;5073149;28;20043;-50
2022/07/19 05:52:38;;;;;;;10.45;7.47;;;21.00;95.20;;;;;;5073380;28;20055;-51
2022/07/19 05:55:06;;;;;;;10.38;7.00;;;21.10;95.50;;;;;;5073180;28;20063;-52
2022/07/19 05:57:31;;;;;;;12.00;7.20;;;21.10;95.30;;;;;;5073282;28;20032;-52
2022/07/19 05:59:57;;;;;;;9.43;6.78;;;21.20;95.60;;;;;;5072517;28;20484;-48
2022/07/19 06:02:24;;;;;;;12.55;7.20;;;21.20;95.20;;;;;;5072975;28;20123;-51
2022/07/19 06:04:50;;;;;;;13.07;7.13;;;21.30;95.20;;;;;;5072705;28;20515;-49
2022/07/19 06:07:15;;;;;;;11.75;8.07;;;21.40;95.00;;;;;;5072999;28;20079;-52
2022/07/19 06:09:41;;;;;;;10.73;6.82;;;21.50;95.40;;;;;;5071509;28;20097;-49
2022/07/19 06:12:06;;;;;;;12.90;7.65;;;21.50;95.00;;;;;;5072316;28;20068;-49
2022/07/19 06:14:32;;;;;;;10.00;6.85;;;21.60;95.20;;;;;;5071275;28;20135;-51
2022/07/19 06:16:59;;;;;;;9.73;6.85;;;21.70;94.80;;;;;;5072970;28;20036;-49
2022/07/19 06:19:26;;;;;;;12.32;7.03;;;21.80;94.80;;;;;;5072625;28;20048;-51
2022/07/19 06:21:52;;;;;;;11.98;7.03;;;21.90;94.70;;;;;;5072486;28;20159;-55
2022/07/19 06:24:18;;;;;;;9.65;6.50;;;22.00;94.40;;;;;;5072786;28;20029;-53
2022/07/19 06:26:43;;;;;;;10.25;6.47;;;22.00;94.40;;;;;;5072560;28;20036;-52
2022/07/19 06:29:09;;;;;;;10.60;6.38;;;22.10;94.70;;;;;;5072221;28;20400;-51
2022/07/19 06:31:35;;;;;;;9.45;6.43;;;22.20;94.40;;;;;;5072444;28;20032;-53
2022/07/19 06:34:01;;;;;;;11.13;6.53;;;22.30;94.40;;;;;;5072754;28;20033;-48
2022/07/19 06:36:27;;;;;;;11.20;6.32;;;22.40;93.90;;;;;;5071774;28;20079;-50
2022/07/19 06:38:52;;;;;;;11.00;6.07;;;22.50;94.10;;;;;;5072224;28;20028;-54
2022/07/19 06:41:18;;;;;;;11.65;6.57;;;22.60;93.70;;;;;;5070760;28;20082;-50
2022/07/19 06:43:44;;;;;;;11.93;6.75;;;22.60;93.30;;;;;;5071878;28;20040;-48
2022/07/19 06:46:10;;;;;;;10.93;6.35;;;22.70;93.90;;;;;;5072213;28;20036;-51
2022/07/19 06:48:36;;;;;;;8.48;5.53;;;22.80;93.60;;;;;;5071820;28;20477;-48
2022/07/19 06:51:02;;;;;;;8.73;5.43;;;22.90;93.60;;;;;;5072229;28;20040;-51
2022/07/19 06:53:28;;;;;;;9.93;6.03;;;23.00;93.50;;;;;;5070406;28;20519;-52
2022/07/19 06:55:53;;;;;;;9.98;5.80;;;23.10;93.40;;;;;;5072021;28;20041;-50
2022/07/19 06:58:19;;;;;;;9.00;5.07;;;23.20;93.40;;;;;;5071575;28;20071;-53
2022/07/19 07:00:45;;;;;;;7.80;5.15;;;23.30;92.80;;;;;;5071447;28;20044;-53
2022/07/19 07:03:11;;;;;;;8.82;5.35;;;23.40;93.00;;;;;;5071983;28;20058;-51
2022/07/19 07:05:37;;;;;;;9.10;5.20;;;23.50;93.00;;;;;;5071821;28;20040;-50
2022/07/19 07:08:03;;;;;;;9.35;5.07;;;23.60;93.30;;;;;;5071641;28;20119;-51
2022/07/19 07:10:29;;;;;;;9.82;4.72;;;23.70;93.00;;;;;;5070391;28;20119;-52
2022/07/19 07:12:54;;;;;;;7.15;4.40;;;23.80;93.00;;;;;;5071521;28;20507;-52
2022/07/19 07:15:20;;;;;;;8.32;4.75;;;23.90;92.60;;;;;;5070128;28;20040;-46
2022/07/19 07:17:46;;;;;;;8.32;5.10;;;24.00;92.60;;;;;;5071801;28;20037;-51
2022/07/19 07:20:12;;;;;;;11.30;4.47;;;24.10;92.40;;;;;;5071393;28;20040;-52
2022/07/19 07:22:38;;;;;;;7.50;3.95;;;24.20;92.50;;;;;;5070263;28;20040;-51
2022/07/19 07:25:05;;;;;;;8.82;4.32;;;24.30;92.40;;;;;;5071612;28;20035;-50
2022/07/19 07:27:31;;;;;;;9.63;3.92;;;24.40;93.00;;;;;;5070996;28;20040;-51
2022/07/19 07:29:57;;;;;;;8.75;3.90;;;24.60;92.40;;;;;;5070974;28;20040;-52
2022/07/19 07:32:22;;;;;;;6.05;3.40;;;24.70;91.80;;;;;;5071255;28;20103;-48
2022/07/19 07:34:48;;;;;;;7.25;4.00;;;24.80;92.40;;;;;;5071367;28;20090;-53
2022/07/19 07:37:14;;;;;;;5.60;3.47;;;24.90;91.90;;;;;;5071137;28;20090;-50
2022/07/19 07:39:39;;;;;;;7.88;3.78;;;25.00;92.20;;;;;;5068575;28;20041;-52
2022/07/19 07:42:06;;;;;;;6.80;3.95;;;25.10;92.00;;;;;;5069407;28;20078;-51
2022/07/19 07:44:31;;;;;;;7.70;3.97;;;25.20;92.10;;;;;;5070292;28;20040;-49
2022/07/19 07:46:57;;;;;;;6.30;3.47;;;25.30;92.20;;;;;;5070501;28;20028;-50
2022/07/19 07:49:23;;;;;;;7.25;3.10;;;25.40;92.10;;;;;;5068737;28;20036;-51
2022/07/19 07:51:49;;;;;;;6.43;3.40;;;25.40;91.90;;;;;;5070308;28;20037;-51
2022/07/19 07:54:15;;;;;;;6.85;3.42;;;25.60;91.80;;;;;;5070145;28;20391;-53
2022/07/19 07:56:41;;;;;;;4.93;2.75;;;25.70;91.60;;;;;;5070460;28;20050;-52
2022/07/19 07:59:07;;;;;;;7.75;2.80;;;25.80;91.50;;;;;;5068561;28;20048;-51
2022/07/19 08:01:34;;;;;;;6.40;2.95;;;26.00;91.70;;;;;;5070351;28;20087;-51
2022/07/19 08:04:00;;;;;;;5.95;3.00;;;26.00;91.90;;;;;;5068716;28;20071;-52
2022/07/19 08:06:25;;;;;;;6.80;3.38;;;26.20;91.40;;;;;;5070204;28;20029;-50
2022/07/19 08:08:51;;;;;;;5.00;2.45;;;26.20;91.40;;;;;;5051859;28;20043;-51
2022/07/19 08:11:17;;;;;;;6.32;2.97;;;26.30;91.30;;;;;;5070030;28;20040;-50
2022/07/19 08:13:42;;;;;;;7.88;3.40;;;26.50;90.90;;;;;;5069712;28;20098;-56
2022/07/19 08:16:08;;;;;;;5.35;2.60;;;26.60;91.40;;;;;;5069877;28;20157;-47
2022/07/19 08:18:34;;;;;;;4.88;2.55;;;26.60;91.40;;;;;;5070030;28;20041;-49
2022/07/19 08:20:59;;;;;;;6.50;2.55;;;26.70;90.70;;;;;;5069856;28;20110;-50
2022/07/19 08:23:25;;;;;;;4.95;2.60;;;26.80;90.40;;;;;;5069773;28;20388;-51
2022/07/19 08:25:51;;;;;;;6.60;2.35;;;27.00;90.80;;;;;;5069782;28;20036;-54
2022/07/19 08:28:16;;;;;;;4.97;2.15;;;27.10;90.20;;;;;;5069986;28;20040;-53
2022/07/19 08:30:42;;;;;;;5.53;2.50;;;27.20;90.20;;;;;;5069921;28;20515;-51
2022/07/19 08:33:09;;;;;;;5.65;2.28;;;27.30;88.90;;;;;;5069643;28;20450;-50
2022/07/19 08:35:36;;;;;;;5.20;2.30;;;27.40;90.30;;;;;;5069633;28;20047;-52
2022/07/19 08:38:02;;;;;;;5.13;2.22;;;27.50;90.00;;;;;;5069957;28;20442;-52
2022/07/19 08:40:28;;;;;;;5.32;2.38;;;27.60;90.20;;;;;;5069681;28;20037;-52
2022/07/19 08:42:58;;;;;;;4.07;2.00;;;27.60;90.00;;;;;;5069727;28;20388;-54
2022/07/19 08:45:25;;;;;;;6.25;2.00;;;27.80;90.20;;;;;;5069530;28;20033;-51
2022/07/19 08:47:51;;;;;;;7.70;2.38;;;27.90;88.30;;;;;;5069824;28;20044;-50
2022/07/19 08:50:17;;;;;;;5.88;2.17;;;28.00;88.50;;;;;;5069298;28;20400;-51
2022/07/19 08:52:42;;;;;;;7.20;2.42;;;28.10;89.50;;;;;;5070511;28;20033;-50
2022/07/19 08:55:09;;;;;;;6.93;2.00;;;28.30;86.80;;;;;;5073381;28;20036;-52
2022/07/19 09:00:20;;;;;;;4.82;2.10;;;28.60;86.60;;;;;;5073035;28;20063;-49
2022/07/19 09:02:52;;;;;;;6.20;1.88;;;28.80;84.10;;;;;;5073801;28;20379;-51
2022/07/19 09:05:18;;;;;;;9.93;2.00;;;28.80;83.10;;;;;;5073016;28;20108;-54
2022/07/19 09:08:19;;;;;;;6.38;2.05;;;29.00;84.10;;;;;;5073295;28;20127;-49
2022/07/19 09:11:14;;;;;;;10.77;1.90;;;29.20;79.20;;;;;;5072724;28;20045;-50
2022/07/19 09:13:33;;;;;;;5.30;1.85;;;29.50;79.50;;;;;;5072416;28;20123;-50
2022/07/19 09:15:59;;;;;;;4.85;1.75;;;29.70;79.70;;;;;;5072997;28;20045;-51
2022/07/19 09:18:30;;;;;;;5.75;1.98;;;29.80;80.70;;;;;;5073276;28;20129;-50
2022/07/19 09:21:06;;;;;;;5.57;1.80;;;30.00;80.60;;;;;;5073176;28;20036;-52
2022/07/19 09:23:33;;;;;;;8.25;1.88;;;30.30;79.50;;;;;;5072931;28;20036;-52
2022/07/19 09:26:05;;;;;;;6.35;1.83;;;30.40;79.50;;;;;;5072941;28;20029;-49
2022/07/19 09:28:34;;;;;;;5.70;1.73;;;30.60;80.20;;;;;;5072866;28;20496;-52
2022/07/19 09:31:02;;;;;;;5.03;1.85;;;30.70;81.80;;;;;;5072260;28;20044;-51
2022/07/19 09:33:33;;;;;;;4.18;1.95;;;30.90;77.80;;;;;;5072487;28;20040;-50
2022/07/19 09:36:10;;;;;;;4.25;1.85;;;30.90;75.80;;;;;;5073112;28;20594;-50
2022/07/19 09:38:37;;;;;;;5.63;1.90;;;31.10;76.70;;;;;;5072931;28;20502;-53
2022/07/19 09:41:17;;;;;;;6.40;2.00;;;31.30;76.10;;;;;;5072821;28;20486;-49
2022/07/19 09:43:56;;;;;;;5.60;1.52;;;31.40;73.50;;;;;;5071937;28;20036;-52
2022/07/19 09:46:29;;;;;;;5.35;1.80;;;31.50;74.30;;;;;;5072443;28;20040;-50
2022/07/19 09:49:15;;;;;;;3.92;1.75;;;31.70;74.30;;;;;;5072507;28;20072;-52
2022/07/19 09:51:46;;;;;;;5.35;1.77;;;31.70;71.90;;;;;;5072498;28;20033;-52
2022/07/19 09:54:17;;;;;;;4.82;1.88;;;31.70;71.80;;;;;;5072597;28;20208;-51
2022/07/19 09:56:45;;;;;;;6.88;2.17;;;31.80;71.60;;;;;;5072698;28;20434;-49
2022/07/19 09:59:12;;;;;;;4.30;1.60;;;31.90;72.00;;;;;;5072131;28;20048;-54
2022/07/19 10:01:39;;;;;;;4.40;1.60;;;32.10;71.10;;;;;;5072352;28;20064;-54
2022/07/19 10:04:15;;;;;;;5.00;1.50;;;32.10;71.70;;;;;;5071355;28;20072;-51
2022/07/19 10:06:42;;;;;;;13.63;1.90;;;32.10;69.80;;;;;;5072146;28;20045;-52
2022/07/19 10:09:10;;;;;;;4.82;1.85;;;32.30;70.30;;;;;;5070722;28;20072;-53
2022/07/19 10:11:36;;;;;;;6.32;1.80;;;32.20;67.30;;;;;;5072294;28;20396;-48
2022/07/19 10:14:03;;;;;;;6.15;2.00;;;32.30;70.50;;;;;;5071529;28;20056;-56
2022/07/19 10:17:10;;;;;;;4.10;1.58;;;32.40;67.00;;;;;;5070746;28;20463;-51
2022/07/19 10:19:40;;;;;;;9.30;1.70;;;32.40;66.60;;;;;;5069803;28;20053;-53
2022/07/19 10:22:12;;;;;;;5.28;1.58;;;32.50;67.60;;;;;;5071970;28;20048;-49
2022/07/19 10:24:50;;;;;;;5.47;1.67;;;32.60;66.60;;;;;;5072150;28;20384;-51
2022/07/19 10:27:18;;;;;;;5.45;1.75;;;32.60;68.00;;;;;;5072062;28;20110;-50
2022/07/19 10:29:44;;;;;;;4.43;1.90;;;32.80;68.60;;;;;;5071980;28;20040;-52
2022/07/19 10:32:13;;;;;;;4.75;1.50;;;32.80;66.50;;;;;;5072006;28;20042;-51
2022/07/19 10:34:39;;;;;;;6.57;1.83;;;33.00;67.80;;;;;;5071450;28;20458;-53
2022/07/19 10:37:06;;;;;;;4.65;1.73;;;32.90;66.90;;;;;;5070472;28;20445;-51
2022/07/19 10:39:35;;;;;;;4.28;1.60;;;32.90;65.90;;;;;;5071569;28;20415;-50
2022/07/19 10:42:06;;;;;;;5.22;1.77;;;33.10;67.10;;;;;;5071575;28;20097;-53
2022/07/19 10:44:33;;;;;;;7.93;2.10;;;33.10;66.50;;;;;;5071229;28;20029;-50
2022/07/19 10:46:59;;;;;;;5.10;1.75;;;33.20;67.70;;;;;;5071271;28;20082;-54
2022/07/19 10:49:45;;;;;;;6.07;1.92;;;33.20;67.50;;;;;;5071579;28;20472;-51
2022/07/19 10:52:29;;;;;;;4.60;1.63;;;33.30;66.80;;;;;;5071400;28;20475;-52
2022/07/19 10:55:23;;;;;;;4.80;1.50;;;33.30;66.60;;;;;;5071560;28;20471;-52
2022/07/19 10:58:06;;;;;;;5.47;1.90;;;33.30;65.70;;;;;;5071162;28;20042;-51
2022/07/19 11:00:43;;;;;;;6.38;2.00;;;33.50;66.50;;;;;;5071098;28;20051;-50
2022/07/19 11:03:23;;;;;;;4.75;1.60;;;33.50;64.60;;;;;;5071295;28;20036;-51
2022/07/19 11:05:55;;;;;;;5.70;1.65;;;33.50;65.40;;;;;;5071202;28;21092;-52
2022/07/19 11:08:42;;;;;;;3.25;1.63;;;33.50;64.90;;;;;;5071286;28;20040;-50
2022/07/19 11:11:13;;;;;;;4.13;1.70;;;33.70;66.00;;;;;;5069776;28;20044;-53
2022/07/19 11:13:43;;;;;;;4.38;1.60;;;33.80;64.80;;;;;;5070630;28;20037;-54
2022/07/19 11:16:09;;;;;;;6.05;1.52;;;34.00;65.10;;;;;;5069992;28;20035;-53
2022/07/19 11:18:35;;;;;;;4.85;1.63;;;34.30;64.60;;;;;;5070695;28;20041;-50
2022/07/19 11:21:02;;;;;;;4.75;1.50;;;34.20;63.60;;;;;;5070393;28;20123;-52
2022/07/19 11:23:30;;;;;;;5.72;1.63;;;34.30;65.20;;;;;;5070800;28;20032;-51
2022/07/19 11:26:11;;;;;;;5.85;1.55;;;34.40;65.60;;;;;;5070372;28;20128;-52
2022/07/19 11:28:38;;;;;;;4.28;1.40;;;34.60;64.40;;;;;;5069074;28;20040;-50
2022/07/19 11:31:12;;;;;;;5.85;1.27;;;34.70;65.20;;;;;;5070728;28;20358;-49
2022/07/19 11:33:39;;;;;;;4.88;1.50;;;34.80;62.00;;;;;;5069582;28;20377;-54
2022/07/19 11:36:04;;;;;;;5.97;1.50;;;34.70;63.20;;;;;;5070234;28;20049;-50
2022/07/19 11:38:34;;;;;;;4.95;1.40;;;34.90;62.10;;;;;;5070364;28;20039;-52
2022/07/19 11:41:00;;;;;;;5.05;1.45;;;35.00;62.30;;;;;;5070333;28;20051;-50
2022/07/19 11:43:25;;;;;;;5.93;1.70;;;35.10;61.20;;;;;;5070320;28;20107;-52
2022/07/19 11:45:51;;;;;;;6.75;1.60;;;35.20;61.70;;;;;;5070443;28;20087;-52
2022/07/19 11:48:27;;;;;;;4.28;1.65;;;35.20;61.20;;;;;;5070601;28;20040;-51
2022/07/19 11:51:10;;;;;;;4.70;1.35;;;35.30;59.50;;;;;;5070360;28;20044;-51
2022/07/19 11:53:39;;;;;;;3.63;1.65;;;35.40;59.00;;;;;;5070259;28;20044;-48
2022/07/19 11:56:15;;;;;;;3.33;1.35;;;35.30;58.90;;;;;;5070006;28;20038;-55
2022/07/19 11:58:42;;;;;;;4.60;1.20;;;35.60;58.60;;;;;;5069766;28;20037;-52
2022/07/19 12:01:08;;;;;;;4.15;1.00;;;35.60;59.80;;;;;;5070233;28;20047;-53
2022/07/19 12:03:35;;;;;;;2.95;1.13;;;35.70;61.00;;;;;;5069949;28;20044;-51
2022/07/19 12:06:06;;;;;;;5.18;1.33;;;35.70;56.80;;;;;;5070225;28;20040;-54
2022/07/19 12:08:41;;;;;;;3.88;1.25;;;36.00;60.10;;;;;;5070223;28;20086;-52
2022/07/19 12:11:27;;;;;;;3.00;1.20;;;36.10;59.00;;;;;;5069786;28;20062;-50
2022/07/19 12:13:54;;;;;;;4.47;1.20;;;36.20;59.70;;;;;;5069027;28;20123;-53
2022/07/19 12:16:22;;;;;;;4.07;1.42;;;36.20;58.10;;;;;;5070255;28;20488;-54
2022/07/19 12:18:56;;;;;;;4.90;1.45;;;36.10;56.40;;;;;;5068369;28;20052;-53
2022/07/19 12:21:34;;;;;;;4.40;1.50;;;36.40;58.00;;;;;;5069947;28;20051;-51
2022/07/19 12:24:18;;;;;;;5.75;1.25;;;36.40;56.40;;;;;;5070230;28;20051;-50
2022/07/19 12:26:57;;;;;;;4.03;1.25;;;36.50;57.40;;;;;;5070069;28;20082;-50
2022/07/19 12:29:34;;;;;;;4.95;1.60;;;36.70;56.40;;;;;;5073705;28;20107;-52
2022/07/19 12:32:04;;;;;;;3.38;1.45;;;36.90;54.70;;;;;;5073642;28;20041;-52
2022/07/19 12:34:48;;;;;;;2.72;1.25;;;36.90;56.40;;;;;;5074162;28;20036;-52
2022/07/19 12:37:21;;;;;;;3.90;1.48;;;36.90;56.40;;;;;;5072947;28;20036;-53
2022/07/19 12:40:06;;;;;;;;;;;36.90;55.50;;;;;;5073147;28;20087;-53
2022/07/19 12:42:42;;;;;;;3.35;1.38;;;37.00;57.50;;;;;;5073578;28;20269;-54
2022/07/19 12:45:13;;;;;;;4.10;1.33;;;37.20;56.10;;;;;;5074128;28;20127;-51
2022/07/19 12:47:39;;;;;;;4.78;1.45;;;37.30;55.00;;;;;;5073574;28;20039;-50
2022/07/19 12:50:08;;;;;;;2.92;1.40;;;37.40;55.60;;;;;;5073882;28;20036;-52
2022/07/19 12:52:33;;;;;;;3.92;1.40;;;37.30;55.40;;;;;;5073175;28;20037;-53